Weather at Youngdong Beach Tower Apartments Heliports

Public forecast

Using degrees Celsius for public forecast. Weather courtesy of forecast.io.

Closest aviation weather report (METAR) to Youngdong Beach Tower Apartments Heliports

Closest report is Gimhae International Airport, 7.6 nm (14.1 km) NNW. Retrieved 2021/07/24 01:00 UTC (31 minutes ago):

RKPK 240100Z 05008KT 9999 FEW030 BKN200 30/22 Q1009

Closest aviation forecast (TAF) to Youngdong Beach Tower Apartments Heliports

Closest forecast is Gimhae International Airport, 7.6 nm (14.1 km) NNW. Retrieved 2021-07-24 00:00 UTC (2 hours ago):

TAF RKPK 232300Z 2400/2506 06006KT 9999 SCT030 BKN200 TX34/2406Z TN25/2421Z